Glen Robbins, Ohio
Current Conditions -  °F | °C
As of 12:53 PM on Tuesday 21 Oct 2014 (Local Time) from KHLG Reporting Station
Overcast Overcast  
Wind Chill: 51°   Ceiling: 4500
Heat Index: 51°   Visibility: 10mi
Dew Point: 48°   Wind: 6mph
Humidity: 89%   Direction: 300°WNW
Pressure: 29.9"   Gusts: NA
Location:  40.2229°N, 80.7179°W
Report Text: KHLG 211653Z 30005KT 10SM FEW012 BKN045 OVC060 11/09 A2990 RMK AO2 RAE37 SLP131 P0001 T01060089
Loading
Personal Weather Stations






























Interactive Weather Map
Tropical Storm Tracking
New forecast layout! Learn more

10-Day Weather Forecast

Advertisements
Track Severe Weather on mobile